sensor_id;sensor_type;location;lat;lon;timestamp;P1;durP1;ratioP1;P2;durP2;ratioP2
37383;SDS011;23258;49.718;11.082;2023-03-31T00:00:07;2.13;;;1.92;;
37383;SDS011;23258;49.718;11.082;2023-03-31T00:02:37;2.03;;;1.45;;
37383;SDS011;23258;49.718;11.082;2023-03-31T00:05:08;4.88;;;1.80;;
37383;SDS011;23258;49.718;11.082;2023-03-31T00:07:43;1.80;;;1.70;;
37383;SDS011;23258;49.718;11.082;2023-03-31T00:10:16;3.90;;;1.65;;
37383;SDS011;23258;49.718;11.082;2023-03-31T00:12:46;2.95;;;2.17;;
37383;SDS011;23258;49.718;11.082;2023-03-31T00:15:16;3.03;;;2.13;;
37383;SDS011;23258;49.718;11.082;2023-03-31T00:17:45;5.30;;;2.08;;
37383;SDS011;23258;49.718;11.082;2023-03-31T00:20:15;1.77;;;1.67;;
37383;SDS011;23258;49.718;11.082;2023-03-31T00:22:45;2.08;;;1.98;;
37383;SDS011;23258;49.718;11.082;2023-03-31T00:25:17;1.65;;;1.55;;
37383;SDS011;23258;49.718;11.082;2023-03-31T00:27:47;2.83;;;1.80;;
37383;SDS011;23258;49.718;11.082;2023-03-31T00:30:18;1.65;;;1.55;;
37383;SDS011;23258;49.718;11.082;2023-03-31T00:32:48;1.95;;;1.75;;
37383;SDS011;23258;49.718;11.082;2023-03-31T00:35:19;3.85;;;1.80;;
37383;SDS011;23258;49.718;11.082;2023-03-31T00:37:48;1.88;;;1.77;;
37383;SDS011;23258;49.718;11.082;2023-03-31T00:40:22;6.95;;;1.63;;
37383;SDS011;23258;49.718;11.082;2023-03-31T00:42:52;2.00;;;1.90;;
37383;SDS011;23258;49.718;11.082;2023-03-31T00:45:23;1.40;;;1.30;;
37383;SDS011;23258;49.718;11.082;2023-03-31T00:47:54;2.60;;;1.48;;
37383;SDS011;23258;49.718;11.082;2023-03-31T00:50:27;1.45;;;1.35;;
37383;SDS011;23258;49.718;11.082;2023-03-31T00:52:59;1.67;;;1.48;;
37383;SDS011;23258;49.718;11.082;2023-03-31T00:55:35;1.85;;;1.60;;
37383;SDS011;23258;49.718;11.082;2023-03-31T00:58:06;1.52;;;1.42;;
37383;SDS011;23258;49.718;11.082;2023-03-31T01:00:40;1.75;;;1.65;;
37383;SDS011;23258;49.718;11.082;2023-03-31T01:03:09;1.65;;;1.35;;
37383;SDS011;23258;49.718;11.082;2023-03-31T01:05:41;2.35;;;1.60;;
37383;SDS011;23258;49.718;11.082;2023-03-31T01:08:12;2.28;;;1.38;;
37383;SDS011;23258;49.718;11.082;2023-03-31T01:10:48;0.98;;;0.98;;
37383;SDS011;23258;49.718;11.082;2023-03-31T01:13:19;4.82;;;1.63;;
37383;SDS011;23258;49.718;11.082;2023-03-31T01:15:49;2.60;;;1.33;;
37383;SDS011;23258;49.718;11.082;2023-03-31T01:18:19;1.50;;;1.40;;
37383;SDS011;23258;49.718;11.082;2023-03-31T01:20:54;2.65;;;1.30;;
37383;SDS011;23258;49.718;11.082;2023-03-31T01:26:30;1.67;;;1.48;;
37383;SDS011;23258;49.718;11.082;2023-03-31T01:29:07;3.40;;;1.65;;
37383;SDS011;23258;49.718;11.082;2023-03-31T01:31:58;2.22;;;1.48;;
37383;SDS011;23258;49.718;11.082;2023-03-31T01:40:25;1.67;;;1.58;;
37383;SDS011;23258;49.718;11.082;2023-03-31T01:42:58;1.20;;;1.20;;
37383;SDS011;23258;49.718;11.082;2023-03-31T01:45:34;5.18;;;1.98;;
37383;SDS011;23258;49.718;11.082;2023-03-31T01:48:06;1.50;;;1.40;;
37383;SDS011;23258;49.718;11.082;2023-03-31T01:50:40;1.83;;;1.73;;
37383;SDS011;23258;49.718;11.082;2023-03-31T01:53:14;4.38;;;2.00;;
37383;SDS011;23258;49.718;11.082;2023-03-31T01:55:49;1.63;;;1.33;;
37383;SDS011;23258;49.718;11.082;2023-03-31T01:58:23;2.00;;;1.50;;
37383;SDS011;23258;49.718;11.082;2023-03-31T02:00:55;4.03;;;1.90;;
37383;SDS011;23258;49.718;11.082;2023-03-31T02:03:28;1.58;;;1.48;;
37383;SDS011;23258;49.718;11.082;2023-03-31T02:06:01;1.92;;;1.70;;
37383;SDS011;23258;49.718;11.082;2023-03-31T02:08:35;1.85;;;1.58;;
37383;SDS011;23258;49.718;11.082;2023-03-31T02:11:09;2.42;;;1.90;;
37383;SDS011;23258;49.718;11.082;2023-03-31T02:13:39;4.30;;;1.90;;
37383;SDS011;23258;49.718;11.082;2023-03-31T02:16:11;2.25;;;1.83;;
37383;SDS011;23258;49.718;11.082;2023-03-31T02:18:43;1.25;;;1.17;;
37383;SDS011;23258;49.718;11.082;2023-03-31T02:21:15;3.78;;;2.28;;
37383;SDS011;23258;49.718;11.082;2023-03-31T02:23:46;3.45;;;2.25;;
37383;SDS011;23258;49.718;11.082;2023-03-31T02:26:19;3.90;;;1.65;;
37383;SDS011;23258;49.718;11.082;2023-03-31T02:28:50;3.67;;;2.08;;
37383;SDS011;23258;49.718;11.082;2023-03-31T02:31:25;2.22;;;1.90;;
37383;SDS011;23258;49.718;11.082;2023-03-31T02:33:56;2.58;;;1.40;;
37383;SDS011;23258;49.718;11.082;2023-03-31T02:36:27;1.75;;;1.65;;
37383;SDS011;23258;49.718;11.082;2023-03-31T02:38:58;2.33;;;2.13;;
37383;SDS011;23258;49.718;11.082;2023-03-31T02:41:31;6.43;;;1.95;;
37383;SDS011;23258;49.718;11.082;2023-03-31T02:44:01;2.60;;;1.92;;
37383;SDS011;23258;49.718;11.082;2023-03-31T02:46:31;3.35;;;2.45;;
37383;SDS011;23258;49.718;11.082;2023-03-31T02:49:02;3.78;;;2.03;;
37383;SDS011;23258;49.718;11.082;2023-03-31T02:54:20;4.90;;;1.75;;
37383;SDS011;23258;49.718;11.082;2023-03-31T02:57:02;2.55;;;2.00;;
37383;SDS011;23258;49.718;11.082;2023-03-31T02:59:38;4.40;;;2.03;;
37383;SDS011;23258;49.718;11.082;2023-03-31T03:02:17;3.85;;;1.45;;
37383;SDS011;23258;49.718;11.082;2023-03-31T03:07:40;3.97;;;1.75;;
37383;SDS011;23258;49.718;11.082;2023-03-31T03:10:14;3.03;;;1.88;;
37383;SDS011;23258;49.718;11.082;2023-03-31T03:12:50;2.22;;;2.00;;
37383;SDS011;23258;49.718;11.082;2023-03-31T03:15:23;5.45;;;1.83;;
37383;SDS011;23258;49.718;11.082;2023-03-31T03:17:54;4.13;;;1.70;;
37383;SDS011;23258;49.718;11.082;2023-03-31T03:20:24;1.92;;;1.75;;
37383;SDS011;23258;49.718;11.082;2023-03-31T03:22:54;3.47;;;1.73;;
37383;SDS011;23258;49.718;11.082;2023-03-31T03:25:24;3.47;;;1.80;;
37383;SDS011;23258;49.718;11.082;2023-03-31T03:27:58;1.67;;;1.58;;
37383;SDS011;23258;49.718;11.082;2023-03-31T03:30:28;1.30;;;1.20;;
37383;SDS011;23258;49.718;11.082;2023-03-31T03:32:58;2.10;;;2.00;;
37383;SDS011;23258;49.718;11.082;2023-03-31T03:35:27;1.65;;;1.45;;
37383;SDS011;23258;49.718;11.082;2023-03-31T03:37:57;4.50;;;1.90;;
37383;SDS011;23258;49.718;11.082;2023-03-31T03:40:27;2.22;;;1.80;;
37383;SDS011;23258;49.718;11.082;2023-03-31T03:42:59;3.90;;;1.90;;
37383;SDS011;23258;49.718;11.082;2023-03-31T03:45:29;5.35;;;1.80;;
37383;SDS011;23258;49.718;11.082;2023-03-31T03:47:58;3.03;;;1.90;;
37383;SDS011;23258;49.718;11.082;2023-03-31T03:50:28;2.72;;;1.73;;
37383;SDS011;23258;49.718;11.082;2023-03-31T03:52:58;2.72;;;1.98;;
37383;SDS011;23258;49.718;11.082;2023-03-31T03:55:28;2.83;;;2.25;;
37383;SDS011;23258;49.718;11.082;2023-03-31T03:58:00;1.92;;;1.63;;
37383;SDS011;23258;49.718;11.082;2023-03-31T04:00:30;2.53;;;1.58;;
37383;SDS011;23258;49.718;11.082;2023-03-31T04:03:00;1.77;;;1.67;;
37383;SDS011;23258;49.718;11.082;2023-03-31T04:05:30;2.35;;;2.00;;
37383;SDS011;23258;49.718;11.082;2023-03-31T04:08:00;2.35;;;1.60;;
37383;SDS011;23258;49.718;11.082;2023-03-31T04:10:30;1.50;;;1.40;;
37383;SDS011;23258;49.718;11.082;2023-03-31T04:13:02;3.25;;;1.90;;
37383;SDS011;23258;49.718;11.082;2023-03-31T04:15:32;4.70;;;1.67;;
37383;SDS011;23258;49.718;11.082;2023-03-31T04:18:01;1.77;;;1.67;;
37383;SDS011;23258;49.718;11.082;2023-03-31T04:20:31;2.88;;;1.52;;
37383;SDS011;23258;49.718;11.082;2023-03-31T04:23:04;1.65;;;1.50;;
37383;SDS011;23258;49.718;11.082;2023-03-31T04:25:35;3.20;;;1.77;;
37383;SDS011;23258;49.718;11.082;2023-03-31T04:28:14;3.22;;;1.73;;
37383;SDS011;23258;49.718;11.082;2023-03-31T04:30:44;2.15;;;2.05;;
37383;SDS011;23258;49.718;11.082;2023-03-31T04:33:14;4.90;;;2.10;;
37383;SDS011;23258;49.718;11.082;2023-03-31T04:35:44;4.22;;;2.00;;
37383;SDS011;23258;49.718;11.082;2023-03-31T04:38:28;2.00;;;1.80;;
37383;SDS011;23258;49.718;11.082;2023-03-31T04:40:59;4.18;;;2.15;;
37383;SDS011;23258;49.718;11.082;2023-03-31T04:43:31;6.07;;;1.95;;
37383;SDS011;23258;49.718;11.082;2023-03-31T04:46:01;3.47;;;1.95;;
37383;SDS011;23258;49.718;11.082;2023-03-31T04:48:31;2.60;;;2.03;;
37383;SDS011;23258;49.718;11.082;2023-03-31T04:51:01;1.70;;;1.50;;
37383;SDS011;23258;49.718;11.082;2023-03-31T04:53:30;3.15;;;2.47;;
37383;SDS011;23258;49.718;11.082;2023-03-31T04:56:00;2.80;;;2.28;;
37383;SDS011;23258;49.718;11.082;2023-03-31T04:58:33;1.67;;;1.58;;
37383;SDS011;23258;49.718;11.082;2023-03-31T05:01:03;2.60;;;1.77;;
37383;SDS011;23258;49.718;11.082;2023-03-31T05:03:34;3.70;;;1.67;;
37383;SDS011;23258;49.718;11.082;2023-03-31T05:06:04;2.75;;;2.40;;
37383;SDS011;23258;49.718;11.082;2023-03-31T05:08:34;2.70;;;1.77;;
37383;SDS011;23258;49.718;11.082;2023-03-31T05:11:04;2.63;;;1.65;;
37383;SDS011;23258;49.718;11.082;2023-03-31T05:13:36;2.37;;;2.13;;
37383;SDS011;23258;49.718;11.082;2023-03-31T05:16:07;3.15;;;2.10;;
37383;SDS011;23258;49.718;11.082;2023-03-31T05:18:37;2.90;;;2.25;;
37383;SDS011;23258;49.718;11.082;2023-03-31T05:21:08;5.78;;;2.33;;
37383;SDS011;23258;49.718;11.082;2023-03-31T05:23:38;4.38;;;2.05;;
37383;SDS011;23258;49.718;11.082;2023-03-31T05:26:11;2.25;;;1.92;;
37383;SDS011;23258;49.718;11.082;2023-03-31T05:28:44;4.63;;;2.20;;
37383;SDS011;23258;49.718;11.082;2023-03-31T05:31:13;2.97;;;1.98;;
37383;SDS011;23258;49.718;11.082;2023-03-31T05:33:43;5.50;;;1.63;;
37383;SDS011;23258;49.718;11.082;2023-03-31T05:36:14;2.30;;;1.48;;
37383;SDS011;23258;49.718;11.082;2023-03-31T05:38:44;2.05;;;1.90;;
37383;SDS011;23258;49.718;11.082;2023-03-31T05:41:14;1.90;;;1.80;;
37383;SDS011;23258;49.718;11.082;2023-03-31T05:43:49;2.92;;;2.10;;
37383;SDS011;23258;49.718;11.082;2023-03-31T05:46:19;2.05;;;1.95;;
37383;SDS011;23258;49.718;11.082;2023-03-31T05:48:48;5.05;;;1.90;;
37383;SDS011;23258;49.718;11.082;2023-03-31T05:51:18;1.63;;;1.50;;
37383;SDS011;23258;49.718;11.082;2023-03-31T05:53:48;2.15;;;1.90;;
37383;SDS011;23258;49.718;11.082;2023-03-31T05:56:17;3.17;;;1.80;;
37383;SDS011;23258;49.718;11.082;2023-03-31T05:58:50;3.33;;;1.95;;
37383;SDS011;23258;49.718;11.082;2023-03-31T06:01:20;1.60;;;1.50;;
37383;SDS011;23258;49.718;11.082;2023-03-31T06:03:50;2.33;;;1.65;;
37383;SDS011;23258;49.718;11.082;2023-03-31T06:06:20;3.20;;;1.52;;
37383;SDS011;23258;49.718;11.082;2023-03-31T06:08:51;2.40;;;2.00;;
37383;SDS011;23258;49.718;11.082;2023-03-31T06:11:21;3.65;;;2.08;;
37383;SDS011;23258;49.718;11.082;2023-03-31T06:13:53;3.10;;;1.92;;
37383;SDS011;23258;49.718;11.082;2023-03-31T06:16:23;1.77;;;1.67;;
37383;SDS011;23258;49.718;11.082;2023-03-31T06:18:54;6.82;;;2.13;;
37383;SDS011;23258;49.718;11.082;2023-03-31T06:21:24;2.92;;;2.10;;
37383;SDS011;23258;49.718;11.082;2023-03-31T06:23:54;2.17;;;1.98;;
37383;SDS011;23258;49.718;11.082;2023-03-31T06:26:23;4.68;;;3.78;;
37383;SDS011;23258;49.718;11.082;2023-03-31T06:28:56;4.85;;;3.63;;
37383;SDS011;23258;49.718;11.082;2023-03-31T06:31:26;2.78;;;2.58;;
37383;SDS011;23258;49.718;11.082;2023-03-31T06:33:56;4.57;;;2.88;;
37383;SDS011;23258;49.718;11.082;2023-03-31T06:36:26;4.47;;;2.47;;
37383;SDS011;23258;49.718;11.082;2023-03-31T06:38:55;4.65;;;2.58;;
37383;SDS011;23258;49.718;11.082;2023-03-31T06:41:25;3.03;;;2.20;;
37383;SDS011;23258;49.718;11.082;2023-03-31T06:43:58;2.13;;;1.98;;
37383;SDS011;23258;49.718;11.082;2023-03-31T06:46:27;2.17;;;1.98;;
37383;SDS011;23258;49.718;11.082;2023-03-31T06:48:57;1.60;;;1.50;;
37383;SDS011;23258;49.718;11.082;2023-03-31T06:51:27;1.80;;;1.65;;
37383;SDS011;23258;49.718;11.082;2023-03-31T06:53:58;2.80;;;2.30;;
37383;SDS011;23258;49.718;11.082;2023-03-31T06:56:27;2.67;;;2.42;;
37383;SDS011;23258;49.718;11.082;2023-03-31T06:59:00;6.82;;;4.80;;
37383;SDS011;23258;49.718;11.082;2023-03-31T07:01:30;5.15;;;3.03;;
37383;SDS011;23258;49.718;11.082;2023-03-31T07:04:03;3.63;;;2.72;;
37383;SDS011;23258;49.718;11.082;2023-03-31T07:06:33;3.50;;;3.20;;
37383;SDS011;23258;49.718;11.082;2023-03-31T07:09:02;4.65;;;2.80;;
37383;SDS011;23258;49.718;11.082;2023-03-31T07:11:32;3.30;;;2.55;;
37383;SDS011;23258;49.718;11.082;2023-03-31T07:14:04;2.58;;;2.38;;
37383;SDS011;23258;49.718;11.082;2023-03-31T07:16:34;6.65;;;3.15;;
37383;SDS011;23258;49.718;11.082;2023-03-31T07:19:05;2.33;;;2.13;;
37383;SDS011;23258;49.718;11.082;2023-03-31T07:21:36;3.40;;;3.17;;
37383;SDS011;23258;49.718;11.082;2023-03-31T07:24:06;3.45;;;2.63;;
37383;SDS011;23258;49.718;11.082;2023-03-31T07:26:35;3.78;;;3.28;;
37383;SDS011;23258;49.718;11.082;2023-03-31T07:29:08;8.48;;;3.40;;
37383;SDS011;23258;49.718;11.082;2023-03-31T07:31:38;4.65;;;3.00;;
37383;SDS011;23258;49.718;11.082;2023-03-31T07:34:07;5.07;;;2.85;;
37383;SDS011;23258;49.718;11.082;2023-03-31T07:36:37;3.33;;;2.75;;
37383;SDS011;23258;49.718;11.082;2023-03-31T07:39:07;2.88;;;2.67;;
37383;SDS011;23258;49.718;11.082;2023-03-31T07:41:36;4.32;;;2.85;;
37383;SDS011;23258;49.718;11.082;2023-03-31T07:44:09;2.67;;;2.45;;
37383;SDS011;23258;49.718;11.082;2023-03-31T07:46:39;4.18;;;3.10;;
37383;SDS011;23258;49.718;11.082;2023-03-31T07:49:09;5.43;;;2.95;;
37383;SDS011;23258;49.718;11.082;2023-03-31T07:51:41;2.97;;;2.13;;
37383;SDS011;23258;49.718;11.082;2023-03-31T07:54:11;4.97;;;2.90;;
37383;SDS011;23258;49.718;11.082;2023-03-31T07:56:41;3.42;;;3.03;;
37383;SDS011;23258;49.718;11.082;2023-03-31T07:59:13;3.15;;;2.85;;
37383;SDS011;23258;49.718;11.082;2023-03-31T08:01:43;3.35;;;3.10;;
37383;SDS011;23258;49.718;11.082;2023-03-31T08:04:13;3.30;;;2.83;;
37383;SDS011;23258;49.718;11.082;2023-03-31T08:06:43;3.63;;;3.30;;
37383;SDS011;23258;49.718;11.082;2023-03-31T08:09:13;6.10;;;3.40;;
37383;SDS011;23258;49.718;11.082;2023-03-31T08:11:43;3.80;;;2.83;;
37383;SDS011;23258;49.718;11.082;2023-03-31T08:14:16;3.47;;;3.25;;
37383;SDS011;23258;49.718;11.082;2023-03-31T08:16:56;4.07;;;3.63;;
37383;SDS011;23258;49.718;11.082;2023-03-31T08:19:25;7.47;;;3.88;;
37383;SDS011;23258;49.718;11.082;2023-03-31T08:21:55;4.22;;;3.50;;
37383;SDS011;23258;49.718;11.082;2023-03-31T08:24:25;10.57;;;7.18;;
37383;SDS011;23258;49.718;11.082;2023-03-31T08:26:55;10.20;;;4.32;;
37383;SDS011;23258;49.718;11.082;2023-03-31T08:29:27;4.22;;;3.83;;
37383;SDS011;23258;49.718;11.082;2023-03-31T08:31:57;4.32;;;3.45;;
37383;SDS011;23258;49.718;11.082;2023-03-31T08:34:27;8.00;;;3.15;;
37383;SDS011;23258;49.718;11.082;2023-03-31T08:36:56;5.60;;;3.85;;
37383;SDS011;23258;49.718;11.082;2023-03-31T08:39:26;6.90;;;3.67;;
37383;SDS011;23258;49.718;11.082;2023-03-31T08:41:57;5.30;;;3.53;;
37383;SDS011;23258;49.718;11.082;2023-03-31T08:44:32;4.57;;;4.13;;
37383;SDS011;23258;49.718;11.082;2023-03-31T08:47:03;7.15;;;4.00;;
37383;SDS011;23258;49.718;11.082;2023-03-31T08:49:36;4.60;;;4.10;;
37383;SDS011;23258;49.718;11.082;2023-03-31T08:52:09;4.13;;;3.65;;
37383;SDS011;23258;49.718;11.082;2023-03-31T08:54:41;6.10;;;4.05;;
37383;SDS011;23258;49.718;11.082;2023-03-31T08:57:14;5.65;;;4.45;;
37383;SDS011;23258;49.718;11.082;2023-03-31T08:59:48;4.32;;;3.92;;
37383;SDS011;23258;49.718;11.082;2023-03-31T09:02:20;4.35;;;3.85;;
37383;SDS011;23258;49.718;11.082;2023-03-31T09:07:39;5.57;;;3.45;;
37383;SDS011;23258;49.718;11.082;2023-03-31T09:10:18;4.28;;;3.58;;
37383;SDS011;23258;49.718;11.082;2023-03-31T09:12:51;4.82;;;3.90;;
37383;SDS011;23258;49.718;11.082;2023-03-31T09:15:25;8.10;;;3.72;;
37383;SDS011;23258;49.718;11.082;2023-03-31T09:17:56;3.80;;;3.50;;
37383;SDS011;23258;49.718;11.082;2023-03-31T09:20:27;5.75;;;4.15;;
37383;SDS011;23258;49.718;11.082;2023-03-31T09:23:00;4.50;;;3.30;;
37383;SDS011;23258;49.718;11.082;2023-03-31T09:25:32;4.65;;;3.55;;
37383;SDS011;23258;49.718;11.082;2023-03-31T09:28:03;3.85;;;3.38;;
37383;SDS011;23258;49.718;11.082;2023-03-31T09:30:40;9.52;;;3.95;;
37383;SDS011;23258;49.718;11.082;2023-03-31T09:33:10;6.50;;;3.75;;
37383;SDS011;23258;49.718;11.082;2023-03-31T09:35:40;4.22;;;3.83;;
37383;SDS011;23258;49.718;11.082;2023-03-31T09:38:12;3.88;;;3.58;;
37383;SDS011;23258;49.718;11.082;2023-03-31T09:40:42;3.33;;;3.03;;
37383;SDS011;23258;49.718;11.082;2023-03-31T09:43:15;4.03;;;3.22;;
37383;SDS011;23258;49.718;11.082;2023-03-31T09:45:50;4.72;;;3.50;;
37383;SDS011;23258;49.718;11.082;2023-03-31T09:48:35;5.25;;;3.33;;
37383;SDS011;23258;49.718;11.082;2023-03-31T09:51:06;3.30;;;3.00;;
37383;SDS011;23258;49.718;11.082;2023-03-31T09:53:44;4.13;;;3.47;;
37383;SDS011;23258;49.718;11.082;2023-03-31T09:56:30;4.18;;;3.22;;
37383;SDS011;23258;49.718;11.082;2023-03-31T09:59:01;3.97;;;3.50;;
37383;SDS011;23258;49.718;11.082;2023-03-31T10:01:33;4.57;;;2.90;;
37383;SDS011;23258;49.718;11.082;2023-03-31T10:04:05;3.97;;;3.00;;
37383;SDS011;23258;49.718;11.082;2023-03-31T10:06:38;5.13;;;3.83;;
37383;SDS011;23258;49.718;11.082;2023-03-31T10:09:09;3.45;;;3.15;;
37383;SDS011;23258;49.718;11.082;2023-03-31T10:11:39;3.58;;;3.10;;
37383;SDS011;23258;49.718;11.082;2023-03-31T10:14:22;3.28;;;2.97;;
37383;SDS011;23258;49.718;11.082;2023-03-31T10:16:55;4.25;;;3.85;;
37383;SDS011;23258;49.718;11.082;2023-03-31T10:19:26;4.03;;;3.63;;
37383;SDS011;23258;49.718;11.082;2023-03-31T10:21:56;4.10;;;3.55;;
37383;SDS011;23258;49.718;11.082;2023-03-31T10:24:34;4.13;;;2.80;;
37383;SDS011;23258;49.718;11.082;2023-03-31T10:27:05;4.53;;;3.70;;
37383;SDS011;23258;49.718;11.082;2023-03-31T10:29:36;3.45;;;3.13;;
37383;SDS011;23258;49.718;11.082;2023-03-31T10:32:11;6.63;;;2.90;;
37383;SDS011;23258;49.718;11.082;2023-03-31T10:34:41;3.22;;;3.03;;
37383;SDS011;23258;49.718;11.082;2023-03-31T10:37:12;3.90;;;3.58;;
37383;SDS011;23258;49.718;11.082;2023-03-31T10:39:43;2.85;;;2.58;;
37383;SDS011;23258;49.718;11.082;2023-03-31T10:42:20;3.53;;;2.55;;
37383;SDS011;23258;49.718;11.082;2023-03-31T10:44:51;4.00;;;2.50;;
37383;SDS011;23258;49.718;11.082;2023-03-31T10:47:51;2.80;;;2.60;;
37383;SDS011;23258;49.718;11.082;2023-03-31T10:50:25;2.65;;;2.45;;
37383;SDS011;23258;49.718;11.082;2023-03-31T10:53:00;1.73;;;1.05;;
37383;SDS011;23258;49.718;11.082;2023-03-31T10:55:32;1.92;;;1.38;;
37383;SDS011;23258;49.718;11.082;2023-03-31T10:58:05;2.00;;;1.30;;
37383;SDS011;23258;49.718;11.082;2023-03-31T11:00:39;2.75;;;1.60;;
37383;SDS011;23258;49.718;11.082;2023-03-31T11:03:21;1.10;;;1.10;;
37383;SDS011;23258;49.718;11.082;2023-03-31T11:05:58;4.80;;;1.77;;
37383;SDS011;23258;49.718;11.082;2023-03-31T11:08:33;3.95;;;1.50;;
37383;SDS011;23258;49.718;11.082;2023-03-31T11:11:15;1.80;;;1.20;;
37383;SDS011;23258;49.718;11.082;2023-03-31T11:13:50;1.52;;;1.42;;
37383;SDS011;23258;49.718;11.082;2023-03-31T11:16:22;2.92;;;1.42;;
37383;SDS011;23258;49.718;11.082;2023-03-31T11:21:52;2.97;;;1.67;;
37383;SDS011;23258;49.718;11.082;2023-03-31T11:24:30;1.40;;;1.30;;
37383;SDS011;23258;49.718;11.082;2023-03-31T11:27:07;2.67;;;0.90;;
37383;SDS011;23258;49.718;11.082;2023-03-31T11:29:41;7.00;;;1.08;;
37383;SDS011;23258;49.718;11.082;2023-03-31T11:35:14;0.90;;;0.90;;
37383;SDS011;23258;49.718;11.082;2023-03-31T11:37:54;1.52;;;1.05;;
37383;SDS011;23258;49.718;11.082;2023-03-31T11:40:30;0.70;;;0.70;;
37383;SDS011;23258;49.718;11.082;2023-03-31T11:43:05;1.00;;;0.90;;
37383;SDS011;23258;49.718;11.082;2023-03-31T11:45:37;0.98;;;0.88;;
37383;SDS011;23258;49.718;11.082;2023-03-31T11:48:09;1.83;;;1.00;;
37383;SDS011;23258;49.718;11.082;2023-03-31T11:50:43;1.35;;;1.25;;
37383;SDS011;23258;49.718;11.082;2023-03-31T11:53:16;1.42;;;1.33;;
37383;SDS011;23258;49.718;11.082;2023-03-31T11:55:47;1.42;;;1.33;;
37383;SDS011;23258;49.718;11.082;2023-03-31T11:58:20;3.13;;;1.80;;
37383;SDS011;23258;49.718;11.082;2023-03-31T12:00:51;1.25;;;1.13;;
37383;SDS011;23258;49.718;11.082;2023-03-31T12:03:22;2.35;;;1.20;;
37383;SDS011;23258;49.718;11.082;2023-03-31T12:05:55;0.75;;;0.70;;
37383;SDS011;23258;49.718;11.082;2023-03-31T12:08:31;1.80;;;1.20;;
37383;SDS011;23258;49.718;11.082;2023-03-31T12:11:04;1.20;;;1.10;;
37383;SDS011;23258;49.718;11.082;2023-03-31T12:13:41;1.02;;;0.93;;
37383;SDS011;23258;49.718;11.082;2023-03-31T12:16:14;2.08;;;1.67;;
37383;SDS011;23258;49.718;11.082;2023-03-31T12:18:48;1.48;;;1.27;;
37383;SDS011;23258;49.718;11.082;2023-03-31T12:21:24;1.30;;;1.08;;
37383;SDS011;23258;49.718;11.082;2023-03-31T12:23:58;1.70;;;1.60;;
37383;SDS011;23258;49.718;11.082;2023-03-31T12:26:31;2.03;;;0.82;;
37383;SDS011;23258;49.718;11.082;2023-03-31T12:29:02;1.17;;;1.13;;
37383;SDS011;23258;49.718;11.082;2023-03-31T12:31:34;0.80;;;0.80;;
37383;SDS011;23258;49.718;11.082;2023-03-31T12:34:05;0.85;;;0.85;;
37383;SDS011;23258;49.718;11.082;2023-03-31T12:36:40;1.27;;;0.93;;
37383;SDS011;23258;49.718;11.082;2023-03-31T12:39:19;2.92;;;0.77;;
37383;SDS011;23258;49.718;11.082;2023-03-31T12:41:57;0.75;;;0.75;;
37383;SDS011;23258;49.718;11.082;2023-03-31T12:44:36;3.13;;;0.82;;
37383;SDS011;23258;49.718;11.082;2023-03-31T12:47:16;1.25;;;1.23;;
37383;SDS011;23258;49.718;11.082;2023-03-31T12:49:52;3.53;;;1.10;;
37383;SDS011;23258;49.718;11.082;2023-03-31T12:52:24;1.75;;;1.35;;
37383;SDS011;23258;49.718;11.082;2023-03-31T12:57:48;1.02;;;1.02;;
37383;SDS011;23258;49.718;11.082;2023-03-31T13:00:19;1.13;;;1.13;;
37383;SDS011;23258;49.718;11.082;2023-03-31T13:02:49;1.20;;;1.10;;
37383;SDS011;23258;49.718;11.082;2023-03-31T13:08:05;0.90;;;0.90;;
37383;SDS011;23258;49.718;11.082;2023-03-31T13:10:50;0.90;;;0.90;;
37383;SDS011;23258;49.718;11.082;2023-03-31T13:13:24;2.17;;;0.80;;
37383;SDS011;23258;49.718;11.082;2023-03-31T13:15:55;1.02;;;0.95;;
37383;SDS011;23258;49.718;11.082;2023-03-31T13:18:26;0.90;;;0.90;;
37383;SDS011;23258;49.718;11.082;2023-03-31T13:20:57;0.82;;;0.82;;
37383;SDS011;23258;49.718;11.082;2023-03-31T13:23:30;1.83;;;1.20;;
37383;SDS011;23258;49.718;11.082;2023-03-31T13:26:03;1.20;;;1.05;;
37383;SDS011;23258;49.718;11.082;2023-03-31T13:28:36;0.52;;;0.52;;
37383;SDS011;23258;49.718;11.082;2023-03-31T13:31:08;1.55;;;0.70;;
37383;SDS011;23258;49.718;11.082;2023-03-31T13:33:40;2.67;;;0.68;;
37383;SDS011;23258;49.718;11.082;2023-03-31T13:39:11;1.25;;;1.08;;
37383;SDS011;23258;49.718;11.082;2023-03-31T13:41:48;0.90;;;0.90;;
37383;SDS011;23258;49.718;11.082;2023-03-31T13:44:30;2.92;;;1.08;;
37383;SDS011;23258;49.718;11.082;2023-03-31T13:47:07;1.10;;;1.00;;
37383;SDS011;23258;49.718;11.082;2023-03-31T13:49:49;1.02;;;0.57;;
37383;SDS011;23258;49.718;11.082;2023-03-31T13:52:27;0.90;;;0.90;;
37383;SDS011;23258;49.718;11.082;2023-03-31T13:58:00;3.90;;;1.25;;
37383;SDS011;23258;49.718;11.082;2023-03-31T14:00:55;0.90;;;0.90;;
37383;SDS011;23258;49.718;11.082;2023-03-31T14:03:36;0.60;;;0.60;;
37383;SDS011;23258;49.718;11.082;2023-03-31T14:06:10;1.95;;;0.82;;
37383;SDS011;23258;49.718;11.082;2023-03-31T14:08:44;0.77;;;0.77;;
37383;SDS011;23258;49.718;11.082;2023-03-31T14:11:16;0.98;;;0.63;;
37383;SDS011;23258;49.718;11.082;2023-03-31T14:13:57;0.85;;;0.85;;
37383;SDS011;23258;49.718;11.082;2023-03-31T14:16:30;1.83;;;1.23;;
37383;SDS011;23258;49.718;11.082;2023-03-31T14:19:05;0.60;;;0.60;;
37383;SDS011;23258;49.718;11.082;2023-03-31T14:21:38;2.38;;;0.75;;
37383;SDS011;23258;49.718;11.082;2023-03-31T14:24:12;0.88;;;0.80;;
37383;SDS011;23258;49.718;11.082;2023-03-31T14:26:46;2.45;;;0.73;;
37383;SDS011;23258;49.718;11.082;2023-03-31T14:29:20;2.78;;;0.90;;
37383;SDS011;23258;49.718;11.082;2023-03-31T14:31:57;1.55;;;0.82;;
37383;SDS011;23258;49.718;11.082;2023-03-31T14:34:33;1.48;;;0.85;;
37383;SDS011;23258;49.718;11.082;2023-03-31T14:37:05;1.45;;;1.05;;
37383;SDS011;23258;49.718;11.082;2023-03-31T14:39:40;4.03;;;1.10;;
37383;SDS011;23258;49.718;11.082;2023-03-31T14:42:10;1.00;;;0.60;;
37383;SDS011;23258;49.718;11.082;2023-03-31T14:44:41;3.00;;;0.98;;
37383;SDS011;23258;49.718;11.082;2023-03-31T14:47:20;1.70;;;1.10;;
37383;SDS011;23258;49.718;11.082;2023-03-31T14:49:58;2.88;;;1.35;;
37383;SDS011;23258;49.718;11.082;2023-03-31T14:52:28;2.75;;;0.98;;
37383;SDS011;23258;49.718;11.082;2023-03-31T14:54:59;1.48;;;1.17;;
37383;SDS011;23258;49.718;11.082;2023-03-31T14:57:29;1.02;;;0.82;;
37383;SDS011;23258;49.718;11.082;2023-03-31T14:59:59;1.60;;;1.10;;
37383;SDS011;23258;49.718;11.082;2023-03-31T15:02:34;0.52;;;0.50;;
37383;SDS011;23258;49.718;11.082;2023-03-31T15:05:04;1.90;;;0.80;;
37383;SDS011;23258;49.718;11.082;2023-03-31T15:07:35;1.02;;;0.85;;
37383;SDS011;23258;49.718;11.082;2023-03-31T15:10:05;2.15;;;1.10;;
37383;SDS011;23258;49.718;11.082;2023-03-31T15:12:35;0.77;;;0.75;;
37383;SDS011;23258;49.718;11.082;2023-03-31T15:15:06;2.53;;;0.73;;
37383;SDS011;23258;49.718;11.082;2023-03-31T15:17:39;0.85;;;0.85;;
37383;SDS011;23258;49.718;11.082;2023-03-31T15:23:03;1.27;;;0.88;;
37383;SDS011;23258;49.718;11.082;2023-03-31T15:25:34;0.57;;;0.57;;
37383;SDS011;23258;49.718;11.082;2023-03-31T15:28:06;1.40;;;0.80;;
37383;SDS011;23258;49.718;11.082;2023-03-31T15:30:38;1.08;;;0.82;;
37383;SDS011;23258;49.718;11.082;2023-03-31T15:33:14;1.27;;;1.05;;
37383;SDS011;23258;49.718;11.082;2023-03-31T15:35:46;0.82;;;0.82;;
37383;SDS011;23258;49.718;11.082;2023-03-31T15:38:16;0.93;;;0.93;;
37383;SDS011;23258;49.718;11.082;2023-03-31T15:40:48;0.65;;;0.63;;